sensor_id;sensor_type;location;lat;lon;timestamp;P1;durP1;ratioP1;P2;durP2;ratioP2
24337;SDS011;12457;50.832;4.346;2023-04-30T00:00:23;19.00;;;11.93;;
24337;SDS011;12457;50.832;4.346;2023-04-30T00:02:48;18.23;;;10.73;;
24337;SDS011;12457;50.832;4.346;2023-04-30T00:05:14;17.70;;;11.32;;
24337;SDS011;12457;50.832;4.346;2023-04-30T00:07:40;15.38;;;10.32;;
24337;SDS011;12457;50.832;4.346;2023-04-30T00:10:07;18.20;;;10.35;;
24337;SDS011;12457;50.832;4.346;2023-04-30T00:12:34;14.98;;;9.93;;
24337;SDS011;12457;50.832;4.346;2023-04-30T00:15:00;15.93;;;10.13;;
24337;SDS011;12457;50.832;4.346;2023-04-30T00:17:26;18.48;;;10.02;;
24337;SDS011;12457;50.832;4.346;2023-04-30T00:19:52;16.58;;;9.80;;
24337;SDS011;12457;50.832;4.346;2023-04-30T00:22:18;21.70;;;10.63;;
24337;SDS011;12457;50.832;4.346;2023-04-30T00:24:43;20.23;;;11.48;;
24337;SDS011;12457;50.832;4.346;2023-04-30T00:27:09;12.88;;;9.43;;
24337;SDS011;12457;50.832;4.346;2023-04-30T00:29:35;15.35;;;10.43;;
24337;SDS011;12457;50.832;4.346;2023-04-30T00:32:07;17.75;;;9.48;;
24337;SDS011;12457;50.832;4.346;2023-04-30T00:34:33;16.15;;;10.13;;
24337;SDS011;12457;50.832;4.346;2023-04-30T00:36:58;12.73;;;8.45;;
24337;SDS011;12457;50.832;4.346;2023-04-30T00:39:24;14.63;;;9.40;;
24337;SDS011;12457;50.832;4.346;2023-04-30T00:41:50;18.02;;;9.35;;
24337;SDS011;12457;50.832;4.346;2023-04-30T00:44:15;13.02;;;9.02;;
24337;SDS011;12457;50.832;4.346;2023-04-30T00:46:41;12.63;;;8.55;;
24337;SDS011;12457;50.832;4.346;2023-04-30T00:49:07;17.40;;;8.60;;
24337;SDS011;12457;50.832;4.346;2023-04-30T00:51:33;15.93;;;10.20;;
24337;SDS011;12457;50.832;4.346;2023-04-30T00:54:00;13.38;;;9.27;;
24337;SDS011;12457;50.832;4.346;2023-04-30T00:56:27;15.07;;;8.73;;
24337;SDS011;12457;50.832;4.346;2023-04-30T00:58:55;14.63;;;8.10;;
24337;SDS011;12457;50.832;4.346;2023-04-30T01:01:25;14.23;;;7.22;;
24337;SDS011;12457;50.832;4.346;2023-04-30T01:03:53;11.98;;;7.88;;
24337;SDS011;12457;50.832;4.346;2023-04-30T01:06:19;12.90;;;7.70;;
24337;SDS011;12457;50.832;4.346;2023-04-30T01:08:45;15.35;;;8.07;;
24337;SDS011;12457;50.832;4.346;2023-04-30T01:11:15;13.77;;;7.90;;
24337;SDS011;12457;50.832;4.346;2023-04-30T01:17:02;11.90;;;7.13;;
24337;SDS011;12457;50.832;4.346;2023-04-30T01:19:42;23.75;;;8.30;;
24337;SDS011;12457;50.832;4.346;2023-04-30T01:22:31;11.30;;;7.47;;
24337;SDS011;12457;50.832;4.346;2023-04-30T01:25:20;13.68;;;7.78;;
24337;SDS011;12457;50.832;4.346;2023-04-30T01:28:14;13.98;;;7.60;;
24337;SDS011;12457;50.832;4.346;2023-04-30T01:30:44;12.65;;;7.72;;
24337;SDS011;12457;50.832;4.346;2023-04-30T01:33:11;10.68;;;7.43;;
24337;SDS011;12457;50.832;4.346;2023-04-30T01:38:15;11.32;;;7.50;;
24337;SDS011;12457;50.832;4.346;2023-04-30T01:43:57;14.55;;;7.53;;
24337;SDS011;12457;50.832;4.346;2023-04-30T01:46:53;15.55;;;7.88;;
24337;SDS011;12457;50.832;4.346;2023-04-30T01:49:43;16.48;;;8.65;;
24337;SDS011;12457;50.832;4.346;2023-04-30T01:52:26;13.65;;;8.15;;
24337;SDS011;12457;50.832;4.346;2023-04-30T01:55:04;15.75;;;8.73;;
24337;SDS011;12457;50.832;4.346;2023-04-30T01:57:36;16.08;;;8.35;;
24337;SDS011;12457;50.832;4.346;2023-04-30T02:00:06;14.10;;;9.07;;
24337;SDS011;12457;50.832;4.346;2023-04-30T02:02:36;12.40;;;7.75;;
24337;SDS011;12457;50.832;4.346;2023-04-30T02:05:01;13.32;;;8.15;;
24337;SDS011;12457;50.832;4.346;2023-04-30T02:07:40;13.38;;;8.50;;
24337;SDS011;12457;50.832;4.346;2023-04-30T02:10:08;16.08;;;8.90;;
24337;SDS011;12457;50.832;4.346;2023-04-30T02:12:35;13.40;;;7.80;;
24337;SDS011;12457;50.832;4.346;2023-04-30T02:15:02;12.80;;;9.05;;
24337;SDS011;12457;50.832;4.346;2023-04-30T02:17:28;12.27;;;9.38;;
24337;SDS011;12457;50.832;4.346;2023-04-30T02:19:55;18.48;;;9.00;;
24337;SDS011;12457;50.832;4.346;2023-04-30T02:22:20;14.48;;;9.20;;
24337;SDS011;12457;50.832;4.346;2023-04-30T02:24:46;12.23;;;8.68;;
24337;SDS011;12457;50.832;4.346;2023-04-30T02:27:12;14.13;;;10.20;;
24337;SDS011;12457;50.832;4.346;2023-04-30T02:29:37;19.20;;;10.05;;
24337;SDS011;12457;50.832;4.346;2023-04-30T02:32:03;14.15;;;8.57;;
24337;SDS011;12457;50.832;4.346;2023-04-30T02:34:29;17.63;;;10.15;;
24337;SDS011;12457;50.832;4.346;2023-04-30T02:36:55;18.45;;;10.07;;
24337;SDS011;12457;50.832;4.346;2023-04-30T02:39:21;14.25;;;9.05;;
24337;SDS011;12457;50.832;4.346;2023-04-30T02:41:46;16.70;;;9.05;;
24337;SDS011;12457;50.832;4.346;2023-04-30T02:44:12;16.83;;;9.43;;
24337;SDS011;12457;50.832;4.346;2023-04-30T02:46:38;15.63;;;9.07;;
24337;SDS011;12457;50.832;4.346;2023-04-30T02:49:03;15.20;;;9.35;;
24337;SDS011;12457;50.832;4.346;2023-04-30T02:51:29;13.75;;;9.60;;
24337;SDS011;12457;50.832;4.346;2023-04-30T02:53:56;13.98;;;8.63;;
24337;SDS011;12457;50.832;4.346;2023-04-30T02:56:22;14.95;;;9.18;;
24337;SDS011;12457;50.832;4.346;2023-04-30T02:58:48;13.80;;;9.20;;
24337;SDS011;12457;50.832;4.346;2023-04-30T03:01:14;15.20;;;8.45;;
24337;SDS011;12457;50.832;4.346;2023-04-30T03:03:43;14.07;;;8.52;;
24337;SDS011;12457;50.832;4.346;2023-04-30T03:06:09;13.57;;;8.40;;
24337;SDS011;12457;50.832;4.346;2023-04-30T03:08:34;12.02;;;7.95;;
24337;SDS011;12457;50.832;4.346;2023-04-30T03:11:00;12.55;;;9.25;;
24337;SDS011;12457;50.832;4.346;2023-04-30T03:13:26;14.52;;;8.88;;
24337;SDS011;12457;50.832;4.346;2023-04-30T03:15:59;14.23;;;8.73;;
24337;SDS011;12457;50.832;4.346;2023-04-30T03:18:26;14.80;;;8.52;;
24337;SDS011;12457;50.832;4.346;2023-04-30T03:20:52;16.77;;;9.13;;
24337;SDS011;12457;50.832;4.346;2023-04-30T03:23:18;14.32;;;8.75;;
24337;SDS011;12457;50.832;4.346;2023-04-30T03:25:44;14.35;;;8.93;;
24337;SDS011;12457;50.832;4.346;2023-04-30T03:28:10;16.25;;;8.13;;
24337;SDS011;12457;50.832;4.346;2023-04-30T03:30:35;13.27;;;8.63;;
24337;SDS011;12457;50.832;4.346;2023-04-30T03:33:01;13.07;;;8.50;;
24337;SDS011;12457;50.832;4.346;2023-04-30T03:35:27;12.93;;;8.43;;
24337;SDS011;12457;50.832;4.346;2023-04-30T03:37:52;16.38;;;8.95;;
24337;SDS011;12457;50.832;4.346;2023-04-30T03:40:18;15.20;;;9.05;;
24337;SDS011;12457;50.832;4.346;2023-04-30T03:42:44;15.45;;;8.82;;
24337;SDS011;12457;50.832;4.346;2023-04-30T03:45:10;17.30;;;9.05;;
24337;SDS011;12457;50.832;4.346;2023-04-30T03:47:35;13.80;;;9.27;;
24337;SDS011;12457;50.832;4.346;2023-04-30T03:50:01;17.65;;;9.52;;
24337;SDS011;12457;50.832;4.346;2023-04-30T03:52:28;18.90;;;9.57;;
24337;SDS011;12457;50.832;4.346;2023-04-30T03:54:55;16.95;;;10.35;;
24337;SDS011;12457;50.832;4.346;2023-04-30T03:57:21;16.73;;;9.57;;
24337;SDS011;12457;50.832;4.346;2023-04-30T03:59:47;20.42;;;10.68;;
24337;SDS011;12457;50.832;4.346;2023-04-30T04:02:14;15.57;;;10.50;;
24337;SDS011;12457;50.832;4.346;2023-04-30T04:04:39;16.70;;;10.32;;
24337;SDS011;12457;50.832;4.346;2023-04-30T04:07:06;18.13;;;10.57;;
24337;SDS011;12457;50.832;4.346;2023-04-30T04:09:33;16.17;;;10.38;;
24337;SDS011;12457;50.832;4.346;2023-04-30T04:11:59;21.00;;;11.02;;
24337;SDS011;12457;50.832;4.346;2023-04-30T04:14:25;14.52;;;10.80;;
24337;SDS011;12457;50.832;4.346;2023-04-30T04:16:51;17.17;;;11.02;;
24337;SDS011;12457;50.832;4.346;2023-04-30T04:19:17;17.92;;;11.05;;
24337;SDS011;12457;50.832;4.346;2023-04-30T04:21:42;18.27;;;10.90;;
24337;SDS011;12457;50.832;4.346;2023-04-30T04:24:08;19.67;;;10.55;;
24337;SDS011;12457;50.832;4.346;2023-04-30T04:26:34;21.60;;;10.75;;
24337;SDS011;12457;50.832;4.346;2023-04-30T04:29:01;16.55;;;11.68;;
24337;SDS011;12457;50.832;4.346;2023-04-30T04:31:30;20.25;;;11.88;;
24337;SDS011;12457;50.832;4.346;2023-04-30T04:33:57;18.92;;;11.77;;
24337;SDS011;12457;50.832;4.346;2023-04-30T04:36:24;19.63;;;12.23;;
24337;SDS011;12457;50.832;4.346;2023-04-30T04:38:54;16.00;;;10.93;;
24337;SDS011;12457;50.832;4.346;2023-04-30T04:41:21;20.52;;;12.10;;
24337;SDS011;12457;50.832;4.346;2023-04-30T04:43:48;18.58;;;12.30;;
24337;SDS011;12457;50.832;4.346;2023-04-30T04:46:14;19.80;;;12.02;;
24337;SDS011;12457;50.832;4.346;2023-04-30T04:48:40;21.77;;;11.82;;
24337;SDS011;12457;50.832;4.346;2023-04-30T04:51:07;18.02;;;11.27;;
24337;SDS011;12457;50.832;4.346;2023-04-30T04:53:33;20.45;;;13.13;;
24337;SDS011;12457;50.832;4.346;2023-04-30T04:55:59;18.42;;;11.32;;
24337;SDS011;12457;50.832;4.346;2023-04-30T04:58:24;18.35;;;11.80;;
24337;SDS011;12457;50.832;4.346;2023-04-30T05:00:51;18.50;;;12.35;;
24337;SDS011;12457;50.832;4.346;2023-04-30T05:03:17;22.80;;;12.75;;
24337;SDS011;12457;50.832;4.346;2023-04-30T05:05:44;15.98;;;10.93;;
24337;SDS011;12457;50.832;4.346;2023-04-30T05:08:10;20.80;;;11.68;;
24337;SDS011;12457;50.832;4.346;2023-04-30T05:10:36;21.52;;;12.13;;
24337;SDS011;12457;50.832;4.346;2023-04-30T05:13:02;17.92;;;11.32;;
24337;SDS011;12457;50.832;4.346;2023-04-30T05:15:28;16.60;;;11.48;;
24337;SDS011;12457;50.832;4.346;2023-04-30T05:17:55;21.08;;;11.20;;
24337;SDS011;12457;50.832;4.346;2023-04-30T05:20:20;18.58;;;10.82;;
24337;SDS011;12457;50.832;4.346;2023-04-30T05:22:46;19.55;;;11.27;;
24337;SDS011;12457;50.832;4.346;2023-04-30T05:25:12;18.63;;;11.77;;
24337;SDS011;12457;50.832;4.346;2023-04-30T05:27:37;19.67;;;11.25;;
24337;SDS011;12457;50.832;4.346;2023-04-30T05:30:03;18.65;;;11.23;;
24337;SDS011;12457;50.832;4.346;2023-04-30T05:32:29;17.92;;;10.80;;
24337;SDS011;12457;50.832;4.346;2023-04-30T05:34:55;16.15;;;10.77;;
24337;SDS011;12457;50.832;4.346;2023-04-30T05:37:21;19.55;;;11.35;;
24337;SDS011;12457;50.832;4.346;2023-04-30T05:39:47;18.75;;;11.25;;
24337;SDS011;12457;50.832;4.346;2023-04-30T05:42:13;16.38;;;10.50;;
24337;SDS011;12457;50.832;4.346;2023-04-30T05:44:39;15.75;;;10.60;;
24337;SDS011;12457;50.832;4.346;2023-04-30T05:47:05;17.17;;;10.45;;
24337;SDS011;12457;50.832;4.346;2023-04-30T05:49:43;21.05;;;11.73;;
24337;SDS011;12457;50.832;4.346;2023-04-30T05:52:08;19.83;;;11.93;;
24337;SDS011;12457;50.832;4.346;2023-04-30T05:54:35;15.65;;;11.13;;
24337;SDS011;12457;50.832;4.346;2023-04-30T05:57:00;17.65;;;10.70;;
24337;SDS011;12457;50.832;4.346;2023-04-30T05:59:26;20.13;;;12.15;;
24337;SDS011;12457;50.832;4.346;2023-04-30T06:01:52;18.95;;;11.85;;
24337;SDS011;12457;50.832;4.346;2023-04-30T06:04:22;16.38;;;11.55;;
24337;SDS011;12457;50.832;4.346;2023-04-30T06:06:48;17.98;;;10.98;;
24337;SDS011;12457;50.832;4.346;2023-04-30T06:09:14;17.95;;;12.50;;
24337;SDS011;12457;50.832;4.346;2023-04-30T06:11:40;20.65;;;12.40;;
24337;SDS011;12457;50.832;4.346;2023-04-30T06:14:05;19.23;;;11.35;;
24337;SDS011;12457;50.832;4.346;2023-04-30T06:16:31;20.52;;;12.10;;
24337;SDS011;12457;50.832;4.346;2023-04-30T06:18:57;15.68;;;11.48;;
24337;SDS011;12457;50.832;4.346;2023-04-30T06:21:23;18.27;;;11.57;;
24337;SDS011;12457;50.832;4.346;2023-04-30T06:23:50;20.20;;;12.75;;
24337;SDS011;12457;50.832;4.346;2023-04-30T06:26:17;19.48;;;12.18;;
24337;SDS011;12457;50.832;4.346;2023-04-30T06:28:43;17.63;;;12.20;;
24337;SDS011;12457;50.832;4.346;2023-04-30T06:31:09;18.33;;;11.57;;
24337;SDS011;12457;50.832;4.346;2023-04-30T06:33:35;18.80;;;12.88;;
24337;SDS011;12457;50.832;4.346;2023-04-30T06:36:00;17.00;;;12.18;;
24337;SDS011;12457;50.832;4.346;2023-04-30T06:38:26;21.50;;;13.98;;
24337;SDS011;12457;50.832;4.346;2023-04-30T06:40:58;18.98;;;13.85;;
24337;SDS011;12457;50.832;4.346;2023-04-30T06:43:33;21.90;;;13.98;;
24337;SDS011;12457;50.832;4.346;2023-04-30T06:46:05;20.73;;;14.48;;
24337;SDS011;12457;50.832;4.346;2023-04-30T06:48:33;23.75;;;13.48;;
24337;SDS011;12457;50.832;4.346;2023-04-30T06:51:21;22.48;;;14.57;;
24337;SDS011;12457;50.832;4.346;2023-04-30T06:54:01;23.10;;;14.85;;
24337;SDS011;12457;50.832;4.346;2023-04-30T06:56:26;24.33;;;15.77;;
24337;SDS011;12457;50.832;4.346;2023-04-30T06:58:52;21.85;;;15.55;;
24337;SDS011;12457;50.832;4.346;2023-04-30T07:01:20;25.95;;;16.27;;
24337;SDS011;12457;50.832;4.346;2023-04-30T07:03:46;24.15;;;15.75;;
24337;SDS011;12457;50.832;4.346;2023-04-30T07:06:16;22.92;;;15.40;;
24337;SDS011;12457;50.832;4.346;2023-04-30T07:08:42;24.45;;;15.65;;
24337;SDS011;12457;50.832;4.346;2023-04-30T07:11:14;24.38;;;16.38;;
24337;SDS011;12457;50.832;4.346;2023-04-30T07:13:45;27.08;;;15.73;;
24337;SDS011;12457;50.832;4.346;2023-04-30T07:16:12;26.30;;;16.52;;
24337;SDS011;12457;50.832;4.346;2023-04-30T07:18:43;23.55;;;16.05;;
24337;SDS011;12457;50.832;4.346;2023-04-30T07:21:12;26.33;;;16.70;;
24337;SDS011;12457;50.832;4.346;2023-04-30T07:23:39;23.30;;;14.98;;
24337;SDS011;12457;50.832;4.346;2023-04-30T07:26:05;27.55;;;16.60;;
24337;SDS011;12457;50.832;4.346;2023-04-30T07:28:31;22.48;;;16.15;;
24337;SDS011;12457;50.832;4.346;2023-04-30T07:30:56;25.17;;;16.48;;
24337;SDS011;12457;50.832;4.346;2023-04-30T07:33:22;25.17;;;16.75;;
24337;SDS011;12457;50.832;4.346;2023-04-30T07:35:48;28.30;;;16.55;;
24337;SDS011;12457;50.832;4.346;2023-04-30T07:38:13;27.58;;;17.08;;
24337;SDS011;12457;50.832;4.346;2023-04-30T07:40:41;29.20;;;17.05;;
24337;SDS011;12457;50.832;4.346;2023-04-30T07:43:07;29.98;;;17.55;;
24337;SDS011;12457;50.832;4.346;2023-04-30T07:45:32;27.45;;;16.88;;
24337;SDS011;12457;50.832;4.346;2023-04-30T07:47:58;27.88;;;17.52;;
24337;SDS011;12457;50.832;4.346;2023-04-30T07:50:25;25.77;;;17.40;;
24337;SDS011;12457;50.832;4.346;2023-04-30T07:52:52;28.48;;;17.58;;
24337;SDS011;12457;50.832;4.346;2023-04-30T07:55:18;26.77;;;17.40;;
24337;SDS011;12457;50.832;4.346;2023-04-30T07:57:45;25.42;;;16.80;;
24337;SDS011;12457;50.832;4.346;2023-04-30T08:00:11;24.83;;;15.93;;
24337;SDS011;12457;50.832;4.346;2023-04-30T08:02:38;23.75;;;15.63;;
24337;SDS011;12457;50.832;4.346;2023-04-30T08:05:04;26.98;;;16.70;;
24337;SDS011;12457;50.832;4.346;2023-04-30T08:07:30;22.55;;;15.70;;
24337;SDS011;12457;50.832;4.346;2023-04-30T08:09:55;26.67;;;16.13;;
24337;SDS011;12457;50.832;4.346;2023-04-30T08:12:21;23.58;;;16.00;;
24337;SDS011;12457;50.832;4.346;2023-04-30T08:14:47;24.70;;;17.02;;
24337;SDS011;12457;50.832;4.346;2023-04-30T08:17:12;23.25;;;14.32;;
24337;SDS011;12457;50.832;4.346;2023-04-30T08:19:50;24.38;;;15.23;;
24337;SDS011;12457;50.832;4.346;2023-04-30T08:22:16;20.67;;;14.10;;
24337;SDS011;12457;50.832;4.346;2023-04-30T08:24:42;22.08;;;14.25;;
24337;SDS011;12457;50.832;4.346;2023-04-30T08:27:07;21.70;;;13.93;;
24337;SDS011;12457;50.832;4.346;2023-04-30T08:29:33;25.33;;;14.30;;
24337;SDS011;12457;50.832;4.346;2023-04-30T08:32:00;23.70;;;14.30;;
24337;SDS011;12457;50.832;4.346;2023-04-30T08:34:29;20.52;;;13.05;;
24337;SDS011;12457;50.832;4.346;2023-04-30T08:36:56;21.90;;;14.10;;
24337;SDS011;12457;50.832;4.346;2023-04-30T08:39:23;20.75;;;13.30;;
24337;SDS011;12457;50.832;4.346;2023-04-30T08:41:55;20.35;;;13.60;;
24337;SDS011;12457;50.832;4.346;2023-04-30T08:44:21;21.70;;;12.77;;
24337;SDS011;12457;50.832;4.346;2023-04-30T08:46:56;18.30;;;12.68;;
24337;SDS011;12457;50.832;4.346;2023-04-30T08:49:23;17.25;;;12.20;;
24337;SDS011;12457;50.832;4.346;2023-04-30T08:52:08;18.90;;;12.73;;
24337;SDS011;12457;50.832;4.346;2023-04-30T08:54:35;19.38;;;13.32;;
24337;SDS011;12457;50.832;4.346;2023-04-30T08:57:02;16.52;;;11.65;;
24337;SDS011;12457;50.832;4.346;2023-04-30T08:59:29;17.63;;;12.27;;
24337;SDS011;12457;50.832;4.346;2023-04-30T09:01:55;20.77;;;11.65;;
24337;SDS011;12457;50.832;4.346;2023-04-30T09:04:21;13.43;;;9.40;;
24337;SDS011;12457;50.832;4.346;2023-04-30T09:06:47;16.80;;;10.18;;
24337;SDS011;12457;50.832;4.346;2023-04-30T09:09:13;19.52;;;10.60;;
24337;SDS011;12457;50.832;4.346;2023-04-30T09:11:40;15.98;;;8.45;;
24337;SDS011;12457;50.832;4.346;2023-04-30T09:14:06;16.42;;;8.48;;
24337;SDS011;12457;50.832;4.346;2023-04-30T09:16:46;12.75;;;8.07;;
24337;SDS011;12457;50.832;4.346;2023-04-30T09:19:26;13.02;;;8.23;;
24337;SDS011;12457;50.832;4.346;2023-04-30T09:21:53;13.00;;;7.97;;
24337;SDS011;12457;50.832;4.346;2023-04-30T09:24:20;12.80;;;7.13;;
24337;SDS011;12457;50.832;4.346;2023-04-30T09:26:46;11.57;;;7.80;;
24337;SDS011;12457;50.832;4.346;2023-04-30T09:29:12;15.32;;;8.95;;
24337;SDS011;12457;50.832;4.346;2023-04-30T09:31:40;13.63;;;7.93;;
24337;SDS011;12457;50.832;4.346;2023-04-30T09:34:09;17.10;;;8.10;;
24337;SDS011;12457;50.832;4.346;2023-04-30T09:36:35;11.45;;;7.10;;
24337;SDS011;12457;50.832;4.346;2023-04-30T09:39:10;15.18;;;8.68;;
24337;SDS011;12457;50.832;4.346;2023-04-30T09:41:37;18.77;;;9.20;;
24337;SDS011;12457;50.832;4.346;2023-04-30T09:44:03;19.95;;;9.73;;
24337;SDS011;12457;50.832;4.346;2023-04-30T09:46:30;17.98;;;9.27;;
24337;SDS011;12457;50.832;4.346;2023-04-30T09:48:58;15.48;;;8.43;;
24337;SDS011;12457;50.832;4.346;2023-04-30T09:51:31;14.23;;;9.63;;
24337;SDS011;12457;50.832;4.346;2023-04-30T09:53:57;14.73;;;9.45;;
24337;SDS011;12457;50.832;4.346;2023-04-30T09:56:26;14.60;;;9.82;;
24337;SDS011;12457;50.832;4.346;2023-04-30T09:58:52;15.85;;;8.93;;
24337;SDS011;12457;50.832;4.346;2023-04-30T10:01:20;15.80;;;9.80;;
24337;SDS011;12457;50.832;4.346;2023-04-30T10:03:47;13.63;;;8.70;;
24337;SDS011;12457;50.832;4.346;2023-04-30T10:06:14;11.75;;;7.05;;
24337;SDS011;12457;50.832;4.346;2023-04-30T10:08:43;10.18;;;7.20;;
24337;SDS011;12457;50.832;4.346;2023-04-30T10:11:14;12.10;;;7.28;;
24337;SDS011;12457;50.832;4.346;2023-04-30T10:13:44;10.52;;;6.72;;
24337;SDS011;12457;50.832;4.346;2023-04-30T10:19:23;10.63;;;6.93;;
24337;SDS011;12457;50.832;4.346;2023-04-30T10:21:54;10.60;;;7.25;;
24337;SDS011;12457;50.832;4.346;2023-04-30T10:24:20;9.50;;;7.15;;
24337;SDS011;12457;50.832;4.346;2023-04-30T10:26:46;9.25;;;6.70;;
24337;SDS011;12457;50.832;4.346;2023-04-30T10:29:13;12.40;;;6.57;;
24337;SDS011;12457;50.832;4.346;2023-04-30T10:31:40;8.35;;;5.80;;
24337;SDS011;12457;50.832;4.346;2023-04-30T10:36:45;9.25;;;5.80;;
24337;SDS011;12457;50.832;4.346;2023-04-30T10:39:21;12.15;;;7.57;;
24337;SDS011;12457;50.832;4.346;2023-04-30T10:41:52;11.60;;;7.28;;
24337;SDS011;12457;50.832;4.346;2023-04-30T10:44:30;8.25;;;5.57;;
24337;SDS011;12457;50.832;4.346;2023-04-30T10:47:06;15.30;;;6.97;;
24337;SDS011;12457;50.832;4.346;2023-04-30T10:49:33;7.68;;;5.75;;
24337;SDS011;12457;50.832;4.346;2023-04-30T10:52:00;7.43;;;5.45;;
24337;SDS011;12457;50.832;4.346;2023-04-30T10:54:30;11.88;;;6.70;;
24337;SDS011;12457;50.832;4.346;2023-04-30T10:59:50;11.52;;;6.00;;
24337;SDS011;12457;50.832;4.346;2023-04-30T11:02:38;12.25;;;6.20;;
24337;SDS011;12457;50.832;4.346;2023-04-30T11:05:09;7.82;;;5.18;;
24337;SDS011;12457;50.832;4.346;2023-04-30T11:07:36;8.35;;;5.03;;
24337;SDS011;12457;50.832;4.346;2023-04-30T11:10:10;10.47;;;5.60;;
24337;SDS011;12457;50.832;4.346;2023-04-30T11:12:39;10.13;;;5.85;;
24337;SDS011;12457;50.832;4.346;2023-04-30T11:15:10;7.82;;;5.35;;
24337;SDS011;12457;50.832;4.346;2023-04-30T11:17:38;9.27;;;5.55;;
24337;SDS011;12457;50.832;4.346;2023-04-30T11:20:04;8.90;;;5.38;;
24337;SDS011;12457;50.832;4.346;2023-04-30T11:22:30;8.85;;;5.45;;
24337;SDS011;12457;50.832;4.346;2023-04-30T11:27:37;6.65;;;4.53;;
24337;SDS011;12457;50.832;4.346;2023-04-30T11:30:09;6.88;;;4.60;;
24337;SDS011;12457;50.832;4.346;2023-04-30T11:32:43;6.60;;;4.37;;
24337;SDS011;12457;50.832;4.346;2023-04-30T11:35:11;7.22;;;4.65;;
24337;SDS011;12457;50.832;4.346;2023-04-30T11:37:39;6.38;;;4.70;;
24337;SDS011;12457;50.832;4.346;2023-04-30T11:40:08;6.95;;;4.88;;
24337;SDS011;12457;50.832;4.346;2023-04-30T11:42:39;6.90;;;4.68;;
24337;SDS011;12457;50.832;4.346;2023-04-30T11:47:40;5.63;;;3.83;;
24337;SDS011;12457;50.832;4.346;2023-04-30T11:50:10;8.75;;;4.93;;
24337;SDS011;12457;50.832;4.346;2023-04-30T11:52:40;9.27;;;4.25;;
24337;SDS011;12457;50.832;4.346;2023-04-30T11:55:17;6.18;;;3.75;;
24337;SDS011;12457;50.832;4.346;2023-04-30T11:57:45;9.77;;;5.18;;
24337;SDS011;12457;50.832;4.346;2023-04-30T12:02:43;9.02;;;5.57;;
24337;SDS011;12457;50.832;4.346;2023-04-30T12:08:02;9.73;;;5.18;;
24337;SDS011;12457;50.832;4.346;2023-04-30T12:10:29;6.22;;;4.20;;
24337;SDS011;12457;50.832;4.346;2023-04-30T12:12:56;7.18;;;4.63;;
24337;SDS011;12457;50.832;4.346;2023-04-30T12:15:22;10.75;;;4.93;;
24337;SDS011;12457;50.832;4.346;2023-04-30T12:17:59;6.00;;;4.97;;
24337;SDS011;12457;50.832;4.346;2023-04-30T12:20:38;7.93;;;4.68;;
24337;SDS011;12457;50.832;4.346;2023-04-30T12:23:05;7.82;;;4.13;;
24337;SDS011;12457;50.832;4.346;2023-04-30T12:25:38;5.95;;;4.20;;
24337;SDS011;12457;50.832;4.346;2023-04-30T12:28:08;8.25;;;4.53;;
24337;SDS011;12457;50.832;4.346;2023-04-30T12:30:35;8.38;;;5.07;;
24337;SDS011;12457;50.832;4.346;2023-04-30T12:33:00;6.80;;;4.32;;
24337;SDS011;12457;50.832;4.346;2023-04-30T12:35:28;6.10;;;4.07;;
24337;SDS011;12457;50.832;4.346;2023-04-30T12:38:07;9.40;;;4.80;;
24337;SDS011;12457;50.832;4.346;2023-04-30T12:40:33;5.55;;;4.20;;
24337;SDS011;12457;50.832;4.346;2023-04-30T12:43:00;8.05;;;4.25;;
24337;SDS011;12457;50.832;4.346;2023-04-30T12:48:10;7.53;;;4.15;;
24337;SDS011;12457;50.832;4.346;2023-04-30T12:50:37;8.88;;;4.88;;
24337;SDS011;12457;50.832;4.346;2023-04-30T12:53:15;6.95;;;4.75;;
24337;SDS011;12457;50.832;4.346;2023-04-30T12:55:41;6.95;;;4.85;;
24337;SDS011;12457;50.832;4.346;2023-04-30T12:58:12;5.65;;;4.18;;
24337;SDS011;12457;50.832;4.346;2023-04-30T13:00:42;8.43;;;4.35;;
24337;SDS011;12457;50.832;4.346;2023-04-30T13:03:18;5.00;;;3.55;;
24337;SDS011;12457;50.832;4.346;2023-04-30T13:05:53;6.32;;;4.25;;
24337;SDS011;12457;50.832;4.346;2023-04-30T13:08:19;5.47;;;3.65;;
24337;SDS011;12457;50.832;4.346;2023-04-30T13:10:46;6.22;;;4.00;;
24337;SDS011;12457;50.832;4.346;2023-04-30T13:13:12;4.63;;;3.10;;
24337;SDS011;12457;50.832;4.346;2023-04-30T13:15:39;5.05;;;3.80;;
24337;SDS011;12457;50.832;4.346;2023-04-30T13:18:06;3.95;;;3.00;;
24337;SDS011;12457;50.832;4.346;2023-04-30T13:20:36;4.80;;;3.00;;
24337;SDS011;12457;50.832;4.346;2023-04-30T13:23:02;3.88;;;3.13;;
24337;SDS011;12457;50.832;4.346;2023-04-30T13:25:29;5.10;;;3.38;;
24337;SDS011;12457;50.832;4.346;2023-04-30T13:27:56;5.28;;;3.00;;
24337;SDS011;12457;50.832;4.346;2023-04-30T13:30:22;4.90;;;3.20;;
24337;SDS011;12457;50.832;4.346;2023-04-30T13:32:48;4.65;;;3.58;;
24337;SDS011;12457;50.832;4.346;2023-04-30T13:35:14;4.05;;;2.88;;
24337;SDS011;12457;50.832;4.346;2023-04-30T13:37:39;5.10;;;3.17;;
24337;SDS011;12457;50.832;4.346;2023-04-30T13:40:06;4.35;;;2.83;;
24337;SDS011;12457;50.832;4.346;2023-04-30T13:42:33;5.93;;;3.92;;
24337;SDS011;12457;50.832;4.346;2023-04-30T13:45:00;4.40;;;3.40;;
24337;SDS011;12457;50.832;4.346;2023-04-30T13:47:26;3.80;;;2.47;;
24337;SDS011;12457;50.832;4.346;2023-04-30T13:49:52;5.07;;;3.00;;
24337;SDS011;12457;50.832;4.346;2023-04-30T13:52:17;7.03;;;3.22;;
24337;SDS011;12457;50.832;4.346;2023-04-30T13:54:43;5.15;;;3.28;;
24337;SDS011;12457;50.832;4.346;2023-04-30T13:57:09;4.57;;;3.05;;
24337;SDS011;12457;50.832;4.346;2023-04-30T13:59:35;5.55;;;3.17;;
24337;SDS011;12457;50.832;4.346;2023-04-30T14:02:00;5.28;;;3.35;;
24337;SDS011;12457;50.832;4.346;2023-04-30T14:04:26;4.40;;;3.03;;
24337;SDS011;12457;50.832;4.346;2023-04-30T14:06:52;5.95;;;3.30;;
24337;SDS011;12457;50.832;4.346;2023-04-30T14:09:20;4.75;;;2.80;;
24337;SDS011;12457;50.832;4.346;2023-04-30T14:11:46;6.53;;;3.50;;
24337;SDS011;12457;50.832;4.346;2023-04-30T14:14:12;5.00;;;3.08;;
24337;SDS011;12457;50.832;4.346;2023-04-30T14:16:38;5.68;;;3.15;;
24337;SDS011;12457;50.832;4.346;2023-04-30T14:19:04;7.80;;;4.05;;
24337;SDS011;12457;50.832;4.346;2023-04-30T14:21:30;3.42;;;2.65;;
24337;SDS011;12457;50.832;4.346;2023-04-30T14:23:57;3.10;;;2.42;;
24337;SDS011;12457;50.832;4.346;2023-04-30T14:26:23;6.10;;;2.78;;
24337;SDS011;12457;50.832;4.346;2023-04-30T14:28:48;4.90;;;2.22;;
24337;SDS011;12457;50.832;4.346;2023-04-30T14:31:14;4.13;;;2.58;;
24337;SDS011;12457;50.832;4.346;2023-04-30T14:33:40;5.53;;;3.13;;
24337;SDS011;12457;50.832;4.346;2023-04-30T14:36:06;3.90;;;2.53;;
24337;SDS011;12457;50.832;4.346;2023-04-30T14:41:47;3.85;;;2.83;;
24337;SDS011;12457;50.832;4.346;2023-04-30T14:44:13;7.22;;;2.80;;
24337;SDS011;12457;50.832;4.346;2023-04-30T14:46:39;5.57;;;2.65;;
24337;SDS011;12457;50.832;4.346;2023-04-30T14:49:05;6.57;;;2.10;;
24337;SDS011;12457;50.832;4.346;2023-04-30T14:51:30;3.22;;;2.22;;
24337;SDS011;12457;50.832;4.346;2023-04-30T14:53:57;3.67;;;2.25;;
24337;SDS011;12457;50.832;4.346;2023-04-30T14:56:23;5.07;;;3.05;;
24337;SDS011;12457;50.832;4.346;2023-04-30T14:58:49;5.00;;;2.65;;
24337;SDS011;12457;50.832;4.346;2023-04-30T15:01:15;4.05;;;2.60;;
24337;SDS011;12457;50.832;4.346;2023-04-30T15:03:41;3.75;;;2.50;;
24337;SDS011;12457;50.832;4.346;2023-04-30T15:06:07;5.20;;;2.58;;
24337;SDS011;12457;50.832;4.346;2023-04-30T15:08:33;5.35;;;2.70;;
24337;SDS011;12457;50.832;4.346;2023-04-30T15:10:59;4.40;;;2.22;;